Sonic Adventure (DX): Time Rankings

Records: Times | Rings | Scores | Races | Bosses | Freestyle
Leaders: Times | Rings | Scores | Races | Bosses | Freestyle | Overall
Rank Player Percent Points Date
1 Sonicspeedruner 99.0% 47 12-22-14
2 Gamepro011 98.4% 76 12-22-14
3 Jawzun 96.4% 180 12-22-14
4 Dashjump 94.4% 278 12-22-14
5 DarkPolarNight 93.5% 324 12-22-14
6 F-Man 92.4% 382 12-22-14
7 THC98 92.2% 388 12-22-14
8 ike6252 91.2% 439 12-22-14
9 Avento128bits 91.0% 452 12-22-14
10 francisco 90.9% 453 12-22-14
11 DarkspinesSonic 90.5% 475 12-22-14
12 Marth 90.4% 483 12-22-14
13 frankoredstrato 89.2% 540 12-22-14
14 Paragod 86.0% 700 12-22-14
15 chainchumper 84.8% 760 12-22-14
16 HyperSonic7701 82.7% 870 12-22-14
17 Stefan 81.8% 911 12-22-14
18 Redd 81.2% 944 12-22-14
19 InferSaime 81.1% 950 12-22-14
20 PfoSonic 81.0% 954 12-22-14
21 bertin 79.3% 1038 12-22-14
22 yoshifan 78.9% 1060 12-22-14
23 drminus 78.4% 1082 12-22-14
24 SonicDash1999 78.4% 1085 12-22-14
25 Coolfansonic 78.0% 1106 12-22-14
26 Dave Cramer 77.1% 1152 12-22-14
27 RPGnutter 76.9% 1160 12-22-14
28 sonicam 75.0% 1257 12-22-14
29 Cybrax 74.8% 1265 12-22-14
30 Ring Rush 72.5% 1382 12-22-14
31 mike89 71.4% 1435 12-22-14
32 NintenDan 71.3% 1444 12-22-14
33 SkyLights 67.5% 1633 12-22-14
34 Combo 65.9% 1712 12-22-14
35 SADXTryHard 63.4% 1839 12-22-14
36 P1 Pause 63.1% 1852 12-22-14
37 Groudon199 61.0% 1962 12-22-14
38 Shadow Jacky 60.2% 2002 12-22-14
39 Dawid8404 60.1% 2006 12-22-14
40 Thorn 59.0% 2063 12-22-14
41 VMU Player Banned 58.9% 2064 12-22-14
42 SB737 57.7% 2126 12-22-14
43 The Knuckles Chao 57.6% 2132 12-22-14
44 Chao_Fan 57.3% 2147 12-22-14
45 SadisticMystic 57.1% 2155 12-22-14
46 Parax 56.4% 2192 12-22-14
47 OmegaDJ 56.2% 2201 12-22-14
48 mauserman 56.0% 2214 12-22-14
49 Psyknux 55.8% 2220 12-22-14
50 Mastakirby 55.6% 2234 12-22-14
51 Auriman1 55.3% 2245 12-22-14
52 magnum12 55.3% 2246 12-22-14
53 KinkyCadence 54.7% 2276 12-22-14
54 Turbos 54.6% 2283 12-22-14
55 GerbilSoft 54.4% 2294 12-22-14
56 GreatStar 54.0% 2313 12-22-14
57 Webber3000 53.2% 2353 12-22-14
58 Nimrod 52.4% 2391 12-22-14
59 Hipertails12 52.3% 2398 12-22-14
60 James_Bertolli 50.0% 2512 12-22-14
61 Cream147 49.6% 2534 12-22-14
62 Skylace 49.3% 2551 12-22-14
63 welldooder64 49.1% 2559 12-22-14
64 Diamond 48.9% 2570 12-22-14
65 Omega Rafael Santos 48.7% 2578 12-22-14
66 Quartz 48.6% 2585 12-22-14
67 Psymar 48.3% 2600 12-22-14
68 teamblackarms 47.1% 2661 12-22-14
69 buddychaos0415 46.5% 2690 12-22-14
70 SilverSonic 46.3% 2702 12-22-14
71 Andrea Ritsu 45.4% 2747 12-22-14
72 SilvertheAlmighty 45.1% 2760 12-22-14
73 itsPersonnal 45.0% 2766 12-22-14
74 metanightmare22 44.2% 2805 12-22-14
75 lordmetalsonic 42.2% 2906 12-22-14
76 Arch 41.6% 2938 12-22-14
77 Termon 41.0% 2964 12-22-14
78 videogamemaster777 40.9% 2969 12-22-14
79 supersonicfan 40.4% 2998 12-22-14
80 Kanimayo_Jp 39.9% 3023 12-22-14
81 LilZero 39.3% 3050 12-22-14
82 paulie9990 39.0% 3066 12-22-14
83 FuzZerd 39.0% 3068 12-22-14
84 eggFL 38.5% 3091 12-22-14
85 Don 37.9% 3122 12-22-14
86 Siavash Tazari 37.1% 3165 12-22-14
87 Fr3nZy 36.9% 3174 12-22-14
88 f0rever_zer0 35.9% 3225 12-22-14
89 Cod4Scopes 35.7% 3235 12-22-14
90 Cyan Ryan 35.2% 3260 12-22-14
91 supersonic465 35.0% 3270 12-22-14
92 LinksDarkArrows 34.9% 3274 12-22-14
93 Austinf 34.2% 3310 12-22-14
94 elecmouse101 33.9% 3325 12-22-14
95 Therio 33.7% 3334 12-22-14
96 Staf 33.7% 3336 12-22-14
97 MiStEr_ShAoLiN 33.4% 3347 12-22-14
98 BrokenArthritis 33.1% 3366 12-22-14
99 danieldude 32.9% 3375 12-22-14
100 Xia 32.4% 3398 12-22-14
101 welshmoose05 31.9% 3426 12-22-14
102 The Great Lord Mick 30.7% 3485 12-22-14
103 Mcshuggets 30.6% 3491 12-22-14
104 Maxinfamily 30.3% 3507 12-22-14
105 Aitamen 30.1% 3516 12-22-14
106 videogamer1014 30.0% 3519 12-22-14
107 Matt_TY 29.9% 3527 12-22-14
108 joecoolgames 29.7% 3533 12-22-14
109 dabestgamer 29.6% 3538 12-22-14
110 imazor017 29.2% 3561 12-22-14
111 SonicWinDX 28.4% 3598 12-22-14
112 SuperSonic101 28.4% 3601 12-22-14
113 superjupi 28.3% 3606 12-22-14
114 Shadowthegreat 28.2% 3608 12-22-14
115 Rolken 27.7% 3635 12-22-14
116 Hunters13 27.5% 3648 12-22-14
117 SaviourDC 27.3% 3656 12-22-14
118 iarebored 27.2% 3663 12-22-14
119 sonamyfan666 27.0% 3670 12-22-14
120 Spinballwizard 26.9% 3675 12-22-14
121 SonicKnuckles 26.6% 3691 12-22-14
122 EngiNerd 25.7% 3734 12-22-14
123 adf 25.6% 3743 12-22-14
124 Megaman EXE565 25.0% 3769 12-22-14
125 The T 24.5% 3798 12-22-14
126 Platformer 23.9% 3825 12-22-14
127 Sonic Singularity 23.9% 3826 12-22-14
128 Pokemonmaster888 23.7% 3836 12-22-14
129 SeaWolf 23.6% 3841 12-22-14
130 timpkmn89 23.3% 3857 12-22-14
131 Swift Hobo 23.1% 3869 12-22-14
132 Sondow 22.6% 3892 12-22-14
133 Rickyman48 22.5% 3895 12-22-14
134 FoxBoy 21.9% 3926 12-22-14
134 KitsuneYamaro 21.9% 3926 12-22-14
136 TFEC Headshot 21.7% 3940 12-22-14
137 Kogen Player Banned 21.3% 3956 12-22-14
138 Starlight Sable 20.5% 3999 12-22-14
139 IsisDazs 20.0% 4021 12-22-14
140 HyperSonic64 20.0% 4024 12-22-14
141 crazy1993 19.4% 4051 12-22-14
142 andres430 19.2% 4064 12-22-14
143 SonicAD 18.0% 4125 12-22-14
144 MPit08 17.9% 4129 12-22-14
145 sonicd5 17.7% 4139 12-22-14
146 dShadow 17.2% 4162 12-22-14
146 iSonicKid2K 17.2% 4162 12-22-14
148 Cutiefox 16.5% 4198 12-22-14
149 BigAL49 16.5% 4199 12-22-14
149 Chawkk 16.5% 4199 12-22-14
151 Miles9999 16.4% 4205 12-22-14
152 Monkeh 16.1% 4220 12-22-14
153 DaDude 15.8% 4233 12-22-14
154 Drflash55 15.6% 4247 12-22-14
155 Bass 15.1% 4272 12-22-14
156 neaolas 14.9% 4279 12-22-14
157 Cruizer 14.7% 4289 12-22-14
158 superiorsonic 14.7% 4290 12-22-14
159 UninspiredUsername 14.6% 4294 12-22-14
160 zapp 14.5% 4299 12-22-14
161 gamefreak1292 14.2% 4317 12-22-14
162 Cooljay 13.6% 4344 12-22-14
163 SonicU260 13.3% 4360 12-22-14
164 Chaos_Overlord 13.3% 4362 12-22-14
165 Valfore 12.8% 4387 12-22-14
166 GarnetPrincess 12.5% 4402 12-22-14
167 soniccoloursunleashed 12.2% 4416 12-22-14
168 ShinigamiMachine 12.0% 4424 12-22-14
169 Sonicsuperstar1 11.8% 4438 12-22-14
170 booo95 11.2% 4464 12-22-14
170 SirTobbii 11.2% 4464 12-22-14
172 Werey 11.1% 4473 12-22-14
173 Mo Player Banned 10.8% 4486 12-22-14
174 sonicspeed 10.7% 4489 12-22-14
175 Venick409 9.9% 4529 12-22-14
176 Sithwarrior26 9.9% 4533 12-22-14
177 ingx24 9.5% 4553 12-22-14
178 CyberShadow 9.3% 4563 12-22-14
179 Fozer 9.0% 4579 12-22-14
180 Colomb_30 8.8% 4585 12-22-14
181 Regano1000 8.5% 4600 12-22-14
182 1stKirbyever 8.3% 4612 12-22-14
183 nuckrieg 7.9% 4633 12-22-14
184 Brian_pso 7.9% 4634 12-22-14
185 douglas 7.7% 4643 12-22-14
186 Th4tN1nj4Turtl3 7.6% 4647 12-22-14
187 TakaRikka 7.6% 4648 12-22-14
187 Zip 7.6% 4648 12-22-14
189 Mariosonic15 7.2% 4666 12-22-14
190 wheatrich 7.1% 4670 12-22-14
191 ieatatsonic 6.9% 4682 12-22-14
192 MStitomix 6.9% 4684 12-22-14
193 HermitHelmet 6.8% 4685 12-22-14
194 niscool 6.6% 4696 12-22-14
195 Triseena 6.5% 4700 12-22-14
196 Cort_pso 6.4% 4705 12-22-14
197 Jose_15 6.2% 4716 12-22-14
198 a_moustache 6.2% 4720 12-22-14
199 Artie 6.1% 4725 12-22-14
200 BlankTH 6.0% 4726 12-22-14
201 Ace747 5.7% 4744 12-22-14
202 Richied 5.6% 4746 12-22-14
203 Paixii 5.3% 4761 12-22-14
204 slade23 5.1% 4775 12-22-14
205 BallzeH 5.0% 4777 12-22-14
206 ArcticDragon 5.0% 4779 12-22-14
207 FSSRandomvids 4.9% 4781 12-22-14
207 Mankster101 4.9% 4781 12-22-14
209 BecauseWarAnvil 4.9% 4782 12-22-14
209 PsyBorg 4.9% 4782 12-22-14
211 Jamixesa 4.8% 4786 12-22-14
212 Nickson98 4.7% 4791 12-22-14
213 Crydio 4.6% 4797 12-22-14
214 TheUltraBlur 4.5% 4802 12-22-14
215 ReuelBrony 4.5% 4805 12-22-14
216 stanski 4.4% 4810 12-22-14
217 tal39h 4.3% 4815 12-22-14
218 knuckles_sonic8 4.1% 4825 12-22-14
219 p0ker 4.0% 4826 12-22-14
220 Blue Infamy 4.0% 4828 12-22-14
221 ErrortheCucco 3.8% 4836 12-22-14
222 Rikum22 3.8% 4839 12-22-14
223 sonic1001 3.6% 4847 12-22-14
223 TheChaosEmeraIds 3.6% 4847 12-22-14
225 syco1098 3.5% 4854 12-22-14
226 AJSIV 3.4% 4856 12-22-14
227 Sonic the Hedgehod16 3.4% 4857 12-22-14
228 Calfd 3.3% 4865 12-22-14
229 themachoman202 3.0% 4878 12-22-14
230 MK 3.0% 4880 12-22-14
231 Fivavoa 2.9% 4886 12-22-14
232 BlackArmsShadow 2.8% 4888 12-22-14
233 Mr. Jones 2.8% 4889 12-22-14
233 ptorflaxendrosis 2.8% 4889 12-22-14
235 djmat 2.8% 4890 12-22-14
236 arcfx1985 2.8% 4891 12-22-14
237 Sonique Hedgehog 2.7% 4893 12-22-14
238 FlandreScarlet9999vr 2.7% 4895 12-22-14
239 KaM Mark MaK 2.5% 4904 12-22-14
240 BeeAwwb 2.5% 4905 12-22-14
241 ShadouZaHejjihoggu 2.4% 4911 12-22-14
242 darkstarblaze 2.2% 4918 12-22-14
243 darkersupershadic 2.2% 4919 12-22-14
244 SpiritDragon1995 2.2% 4920 12-22-14
245 sonic29887 2.1% 4922 12-22-14
246 Got4n 2.1% 4924 12-22-14
246 Sarger001 2.1% 4924 12-22-14
248 Grady219 2.1% 4926 12-22-14
249 Jawaah 2.0% 4929 12-22-14
250 shadowblast63 Player Banned 2.0% 4930 12-22-14
251 Antek 1.9% 4933 12-22-14
252 Klaus 1.9% 4935 12-22-14
253 BioShadow 1.8% 4940 12-22-14
254 SkyBon 1.5% 4954 12-22-14
255 Shanekilz 1.5% 4956 12-22-14
256 isaihtb11 1.4% 4960 12-22-14
257 OhNoes! 1.4% 4961 12-22-14
258 zaktu40 1.3% 4963 12-22-14
259 gaara1234 1.3% 4966 12-22-14
260 MastaToken 1.1% 4973 12-22-14
261 Mister_Slick 1.0% 4977 12-22-14
262 Sonic06Fan 1.0% 4979 12-22-14
263 Rush Hero 1.0% 4980 12-22-14
264 SonicMega167 0.9% 4983 12-22-14
265 gamed00d 0.9% 4986 12-22-14
265 SilverK 0.9% 4986 12-22-14
267 oTaiIilLsS 0.8% 4988 12-22-14
268 Egor305 0.7% 4995 12-22-14
269 Burningskull123 0.5% 5002 12-22-14
270 Heroes_Hater 0.5% 5004 12-22-14
271 Sonicontherun 0.3% 5012 12-22-14
272 antiwwe 0.2% 5018 12-22-14
273 Iwannabelink 0.2% 5021 12-22-14
274 Genuine Hedgehog 0.1% 5022 12-22-14
275 dragondragon18 0.1% 5025 12-22-14
276 SonicK100 0.1% 5026 12-22-14
277 Tyrouble 0.0% 5031 12-22-14
278 LancexExWx 0.0% 5032 12-22-14
278 neji_hyuuga 0.0% 5032 12-22-14
278 Over 0.0% 5032 12-22-14
278 sdj6707 Player Banned 0.0% 5032 12-22-14
278 Tran Sonic Fan Player Banned 0.0% 5032 12-22-14

This page is using the New Data Table System. [FUTURE]

Game ID: 3 | Category ID: 1
Hits: 6,934 | Hits This Month: 53 | DB Calls: 24 | Mem Usage: 5.41 MB | Time: 0.18s | Printable

The Sonic Center v3.9
Copyright 2003-2011 by The Sonic Center Team.